Time;durP1;ratioP1;P1;durP2;ratioP2;P2;SDS_P1;SDS_P2;PMS_P1;PMS_P2;Temp;Humidity;BMP_temperature;BMP_pressure;BME280_temperature;BME280_humidity;BME280_pressure;Samples;Min_cycle;Max_cycle;Signal;HPM_P1;HPM_P2
2021/06/06 00:00:14;;;;;;;12.00;11.10;;;17.10;99.90;;;;;;5050221;28;20943;-76
2021/06/06 00:02:41;;;;;;;12.50;11.57;;;17.10;99.90;;;;;;5053730;28;20477;-75
2021/06/06 00:05:09;;;;;;;13.00;11.90;;;17.10;99.90;;;;;;5057744;28;20494;-73
2021/06/06 00:07:36;;;;;;;15.37;13.90;;;17.10;99.90;;;;;;5057833;28;20481;-75
2021/06/06 00:10:05;;;;;;;14.20;13.10;;;17.00;99.90;;;;;;5058716;28;20986;-73
2021/06/06 00:12:32;;;;;;;13.70;12.70;;;17.00;99.90;;;;;;5052524;28;20519;-74
2021/06/06 00:14:59;;;;;;;13.43;12.33;;;17.00;99.90;;;;;;5059886;28;20950;-73
2021/06/06 00:17:25;;;;;;;13.73;12.60;;;17.00;99.90;;;;;;5043554;28;20803;-73
2021/06/06 00:19:52;;;;;;;14.17;12.97;;;17.00;99.90;;;;;;5053545;28;20539;-77
2021/06/06 00:22:18;;;;;;;14.20;13.03;;;17.10;99.90;;;;;;5049209;28;20459;-74
2021/06/06 00:24:45;;;;;;;14.83;13.57;;;17.10;99.90;;;;;;5045543;28;20522;-74
2021/06/06 00:27:12;;;;;;;14.40;13.30;;;17.10;99.90;;;;;;5042709;28;20460;-75
2021/06/06 00:29:39;;;;;;;14.87;13.60;;;17.10;99.90;;;;;;5054298;28;20459;-74
2021/06/06 00:32:06;;;;;;;14.57;13.37;;;17.10;99.90;;;;;;5056628;28;20475;-77
2021/06/06 00:34:32;;;;;;;15.70;14.50;;;17.10;99.90;;;;;;5047561;28;20989;-79
2021/06/06 00:36:59;;;;;;;14.87;13.67;;;17.10;99.90;;;;;;5040965;28;20460;-76
2021/06/06 00:39:25;;;;;;;14.20;13.10;;;17.10;99.90;;;;;;5064028;28;20555;-74
2021/06/06 00:41:52;;;;;;;15.23;13.80;;;17.10;99.90;;;;;;5042470;28;20526;-78
2021/06/06 00:44:23;;;;;;;14.57;13.37;;;17.10;99.90;;;;;;5054515;28;20454;-75
2021/06/06 00:46:50;;;;;;;15.17;13.97;;;17.00;99.90;;;;;;5052074;28;20451;-73
2021/06/06 00:49:18;;;;;;;15.07;13.87;;;17.00;99.90;;;;;;5058140;28;20455;-78
2021/06/06 00:51:48;;;;;;;14.97;13.77;;;16.90;99.90;;;;;;5044522;28;20964;-77
2021/06/06 00:54:18;;;;;;;15.47;14.10;;;16.90;99.90;;;;;;5053412;28;20492;-76
2021/06/06 00:56:49;;;;;;;15.67;14.27;;;16.90;99.90;;;;;;5064114;28;20899;-78
2021/06/06 00:59:18;;;;;;;15.63;14.20;;;16.90;99.90;;;;;;5051210;28;20950;-74
2021/06/06 01:01:45;;;;;;;16.17;14.67;;;16.90;99.90;;;;;;5045480;28;20483;-74
2021/06/06 01:04:14;;;;;;;14.37;13.17;;;17.00;99.90;;;;;;5048213;28;20467;-73
2021/06/06 01:06:44;;;;;;;15.40;14.13;;;17.00;99.90;;;;;;5048876;28;20496;-73
2021/06/06 01:09:13;;;;;;;15.00;13.80;;;17.10;99.90;;;;;;5050408;28;20975;-73
2021/06/06 01:11:44;;;;;;;15.03;13.73;;;17.10;99.90;;;;;;5045410;28;20658;-73
2021/06/06 01:14:17;;;;;;;15.00;13.80;;;17.10;99.90;;;;;;5048462;28;20540;-73
2021/06/06 01:16:49;;;;;;;14.17;12.97;;;17.20;99.90;;;;;;5052894;28;20460;-72
2021/06/06 01:19:27;;;;;;;14.27;12.97;;;17.20;99.90;;;;;;5049125;28;20695;-75
2021/06/06 01:22:08;;;;;;;14.53;13.43;;;17.10;99.90;;;;;;5050844;28;20459;-78
2021/06/06 01:24:39;;;;;;;14.20;13.00;;;17.20;99.90;;;;;;5049904;28;20485;-72
2021/06/06 01:27:08;;;;;;;14.03;12.83;;;17.20;99.90;;;;;;5043492;28;20950;-73
2021/06/06 01:29:41;;;;;;;14.50;13.30;;;17.20;99.90;;;;;;5055801;28;20492;-73
2021/06/06 01:32:15;;;;;;;13.87;12.77;;;17.20;99.90;;;;;;5052372;28;20484;-73
2021/06/06 01:34:44;;;;;;;14.47;13.37;;;17.20;99.90;;;;;;5043625;28;20537;-73
2021/06/06 01:37:13;;;;;;;13.83;12.57;;;17.20;99.90;;;;;;5041276;28;20931;-75
2021/06/06 01:39:45;;;;;;;13.87;12.60;;;17.10;99.90;;;;;;5053940;28;20567;-73
2021/06/06 01:42:15;;;;;;;13.57;12.37;;;17.10;99.90;;;;;;5053339;28;20448;-73
2021/06/06 01:44:45;;;;;;;15.53;14.13;;;17.20;99.90;;;;;;5060323;28;20489;-74
2021/06/06 01:47:17;;;;;;;13.83;12.73;;;17.20;99.90;;;;;;5061653;28;20815;-74
2021/06/06 01:49:49;;;;;;;13.93;12.73;;;17.20;99.90;;;;;;5048862;28;20449;-76
2021/06/06 01:52:16;;;;;;;14.10;12.90;;;17.20;99.90;;;;;;5057719;28;20554;-73
2021/06/06 01:54:44;;;;;;;13.97;12.90;;;17.20;99.90;;;;;;5055788;28;20546;-74
2021/06/06 01:57:13;;;;;;;15.30;13.90;;;;;;;;;;5073412;28;20489;-76
2021/06/06 01:59:41;;;;;;;13.43;12.23;;;;;;;;;;5059851;28;20456;-79
2021/06/06 02:02:08;;;;;;;14.43;13.20;;;17.20;99.90;;;;;;5059757;28;20461;-73
2021/06/06 02:04:36;;;;;;;15.07;13.67;;;17.20;99.90;;;;;;5064245;28;20555;-73
2021/06/06 02:07:08;;;;;;;15.97;14.27;;;17.20;99.90;;;;;;5050075;28;20471;-74
2021/06/06 02:09:39;;;;;;;16.00;14.60;;;17.20;99.90;;;;;;5056155;28;20474;-75
2021/06/06 02:12:08;;;;;;;14.43;13.00;;;17.20;99.90;;;;;;5051087;28;20495;-73
2021/06/06 02:14:38;;;;;;;15.63;14.20;;;17.20;99.90;;;;;;5056434;28;20488;-73
2021/06/06 02:17:07;;;;;;;14.50;13.30;;;17.20;99.90;;;;;;5051374;28;20946;-75
2021/06/06 02:19:37;;;;;;;15.30;14.03;;;17.20;99.90;;;;;;5052456;28;20532;-73
2021/06/06 02:22:06;;;;;;;16.57;15.17;;;17.10;99.90;;;;;;5050784;28;20452;-73
2021/06/06 02:24:34;;;;;;;16.77;15.27;;;17.10;99.90;;;;;;5058059;28;20528;-74
2021/06/06 02:27:05;;;;;;;16.10;14.73;;;17.10;99.90;;;;;;5058192;28;20489;-78
2021/06/06 02:29:40;;;;;;;17.50;15.83;;;17.10;99.90;;;;;;5046862;28;20450;-73
2021/06/06 02:32:15;;;;;;;16.70;15.20;;;17.10;99.90;;;;;;5058126;28;21002;-77
2021/06/06 02:34:48;;;;;;;18.30;16.70;;;17.10;99.90;;;;;;5051760;28;20626;-73
2021/06/06 02:37:20;;;;;;;18.30;16.60;;;17.10;99.90;;;;;;5055098;28;20495;-76
2021/06/06 02:39:51;;;;;;;18.90;17.20;;;17.10;99.90;;;;;;5054384;28;20543;-73
2021/06/06 02:42:21;;;;;;;20.00;18.20;;;17.00;99.90;;;;;;5059576;28;20546;-73
2021/06/06 02:44:52;;;;;;;20.50;18.63;;;17.00;99.90;;;;;;5047463;28;20456;-73
2021/06/06 02:47:23;;;;;;;20.73;19.03;;;17.00;99.90;;;;;;5058915;28;20457;-73
2021/06/06 02:49:50;;;;;;;20.33;18.57;;;17.00;99.90;;;;;;5058099;28;20984;-74
2021/06/06 02:52:23;;;;;;;21.30;19.40;;;16.90;99.90;;;;;;5056719;28;20534;-76
2021/06/06 02:54:55;;;;;;;21.37;19.37;;;16.90;99.90;;;;;;5055680;28;21015;-73
2021/06/06 02:57:23;;;;;;;19.63;18.03;;;16.90;99.90;;;;;;5059195;28;20455;-73
2021/06/06 02:59:55;;;;;;;21.30;19.30;;;16.90;99.90;;;;;;5061467;28;20475;-74
2021/06/06 03:02:25;;;;;;;21.10;19.20;;;16.80;99.90;;;;;;5049507;28;20443;-73
2021/06/06 03:04:57;;;;;;;22.47;20.30;;;16.80;99.90;;;;;;5062151;28;20848;-73
2021/06/06 03:07:27;;;;;;;22.57;20.57;;;16.80;99.90;;;;;;5055570;28;20463;-79
2021/06/06 03:09:53;;;;;;;21.90;19.90;;;16.80;99.90;;;;;;5060499;28;20983;-76
2021/06/06 03:12:22;;;;;;;21.87;19.97;;;16.80;99.90;;;;;;5051922;28;20483;-74
2021/06/06 03:14:50;;;;;;;23.87;21.63;;;16.80;99.90;;;;;;5049509;28;20483;-73
2021/06/06 03:17:21;;;;;;;25.70;23.13;;;16.80;99.90;;;;;;5054884;28;20531;-75
2021/06/06 03:19:52;;;;;;;23.37;21.20;;;16.90;99.90;;;;;;5058077;28;20761;-73
2021/06/06 03:22:21;;;;;;;22.70;20.60;;;16.80;99.90;;;;;;5058365;28;20502;-73
2021/06/06 03:24:51;;;;;;;24.17;21.97;;;16.80;99.90;;;;;;5052730;28;20457;-75
2021/06/06 03:27:20;;;;;;;25.07;22.73;;;16.80;99.90;;;;;;5063070;28;20447;-79
2021/06/06 03:30:01;;;;;;;24.40;22.10;;;16.80;99.90;;;;;;5052975;28;20972;-76
2021/06/06 03:32:34;;;;;;;24.00;21.60;;;16.80;99.90;;;;;;5051851;28;20717;-77
2021/06/06 03:35:00;;;;;;;22.00;20.00;;;16.80;99.90;;;;;;5052405;28;21031;-75
2021/06/06 03:37:27;;;;;;;23.10;21.10;;;16.80;99.90;;;;;;5059559;28;20831;-74
2021/06/06 03:39:53;;;;;;;25.40;22.97;;;16.80;99.90;;;;;;5050474;28;20952;-76
2021/06/06 03:42:20;;;;;;;24.40;22.07;;;16.80;99.90;;;;;;5057966;28;20453;-73
2021/06/06 03:44:46;;;;;;;23.07;20.80;;;16.80;99.90;;;;;;5055504;28;20554;-76
2021/06/06 03:47:14;;;;;;;22.67;20.57;;;16.90;99.90;;;;;;5054908;28;20853;-75
2021/06/06 03:49:40;;;;;;;24.47;22.27;;;16.90;99.90;;;;;;5053214;28;20859;-74
2021/06/06 03:52:07;;;;;;;24.17;21.90;;;16.90;99.90;;;;;;5050099;28;20572;-76
2021/06/06 03:54:34;;;;;;;23.23;20.97;;;16.90;99.90;;;;;;5051593;28;20587;-73
2021/06/06 03:57:00;;;;;;;22.47;20.53;;;16.90;99.90;;;;;;5055330;28;20894;-74
2021/06/06 03:59:27;;;;;;;22.70;20.80;;;16.90;99.90;;;;;;5059137;28;20445;-78
2021/06/06 04:01:54;;;;;;;22.53;20.50;;;16.90;99.90;;;;;;5045397;28;20438;-73
2021/06/06 04:04:21;;;;;;;23.13;21.03;;;16.90;99.90;;;;;;5052723;28;20449;-73
2021/06/06 04:06:48;;;;;;;22.07;20.20;;;16.90;99.90;;;;;;5048799;28;20971;-73
2021/06/06 04:09:15;;;;;;;21.00;19.20;;;16.90;99.90;;;;;;5055004;28;20452;-73
2021/06/06 04:11:41;;;;;;;20.63;18.83;;;16.90;99.90;;;;;;5043769;28;20523;-76
2021/06/06 04:14:08;;;;;;;20.47;18.77;;;16.90;99.90;;;;;;5055971;28;20452;-75
2021/06/06 04:16:36;;;;;;;22.03;19.90;;;17.00;99.90;;;;;;5047259;28;20835;-73
2021/06/06 04:19:03;;;;;;;20.77;18.90;;;17.00;99.90;;;;;;5052460;28;20500;-72
2021/06/06 04:21:33;;;;;;;21.07;19.37;;;17.00;99.90;;;;;;5055820;28;20456;-75
2021/06/06 04:24:00;;;;;;;21.30;19.40;;;17.10;99.90;;;;;;5062323;28;20463;-73
2021/06/06 04:26:27;;;;;;;20.07;18.27;;;17.10;99.90;;;;;;5057582;28;20451;-73
2021/06/06 04:28:54;;;;;;;21.20;19.40;;;17.10;99.90;;;;;;5058873;28;21011;-75
2021/06/06 04:31:21;;;;;;;20.93;18.90;;;17.10;99.90;;;;;;5055298;28;20481;-73
2021/06/06 04:33:48;;;;;;;20.17;18.23;;;17.10;99.90;;;;;;5053350;28;20483;-80
2021/06/06 04:36:14;;;;;;;19.50;17.40;;;17.10;99.90;;;;;;5052224;28;20538;-74
2021/06/06 04:38:43;;;;;;;20.13;18.33;;;17.20;99.90;;;;;;5047214;28;20572;-74
2021/06/06 04:41:11;;;;;;;20.30;18.57;;;17.30;99.90;;;;;;5052649;28;20472;-77
2021/06/06 04:43:38;;;;;;;18.50;17.00;;;17.20;99.90;;;;;;5059495;28;20818;-73
2021/06/06 04:46:04;;;;;;;19.77;17.90;;;17.20;99.90;;;;;;5068451;28;20554;-79
2021/06/06 04:48:33;;;;;;;19.30;17.60;;;17.30;99.90;;;;;;5068539;28;20491;-73
2021/06/06 04:51:03;;;;;;;20.20;18.50;;;17.40;99.90;;;;;;5053776;28;20555;-73
2021/06/06 04:53:30;;;;;;;20.60;18.70;;;17.50;99.90;;;;;;5051814;28;20454;-73
2021/06/06 04:55:59;;;;;;;18.40;16.80;;;17.40;99.90;;;;;;5053699;28;20453;-75
2021/06/06 04:58:27;;;;;;;21.40;18.40;;;17.30;99.90;;;;;;5050460;28;20587;-82
2021/06/06 05:00:55;;;;;;;19.77;18.07;;;17.20;99.90;;;;;;5060005;28;20445;-74
2021/06/06 05:03:22;;;;;;;18.93;17.40;;;17.30;99.90;;;;;;5050033;28;20463;-74
2021/06/06 05:05:49;;;;;;;19.17;17.47;;;17.40;99.90;;;;;;5057153;28;20520;-76
2021/06/06 05:08:18;;;;;;;19.37;17.77;;;17.30;99.90;;;;;;5054392;28;20480;-77
2021/06/06 05:10:46;;;;;;;19.83;18.20;;;17.20;99.90;;;;;;5045257;28;20545;-73
2021/06/06 05:13:15;;;;;;;19.70;17.90;;;17.20;99.90;;;;;;5058990;28;20457;-74
2021/06/06 05:15:41;;;;;;;21.53;19.73;;;17.30;99.90;;;;;;5039592;28;20539;-79
2021/06/06 05:18:08;;;;;;;18.60;17.10;;;17.20;99.90;;;;;;5052338;28;20515;-76
2021/06/06 05:20:38;;;;;;;19.07;17.47;;;17.10;99.90;;;;;;5060494;28;20463;-74
2021/06/06 05:23:05;;;;;;;18.23;16.73;;;17.20;99.90;;;;;;5055288;28;20983;-79
2021/06/06 05:25:32;;;;;;;19.00;17.40;;;17.30;99.90;;;;;;5055569;28;20444;-81
2021/06/06 05:27:59;;;;;;;18.90;17.30;;;17.30;99.90;;;;;;5047645;28;20445;-73
2021/06/06 05:30:29;;;;;;;18.87;17.23;;;17.20;99.90;;;;;;5052565;28;20454;-73
2021/06/06 05:32:56;;;;;;;17.60;16.00;;;17.30;99.90;;;;;;5053272;28;20541;-74
2021/06/06 05:35:25;;;;;;;16.90;15.60;;;17.30;99.90;;;;;;5058141;28;20456;-74
2021/06/06 05:37:52;;;;;;;17.63;16.13;;;17.30;99.90;;;;;;5053007;28;20503;-73
2021/06/06 05:40:19;;;;;;;17.13;15.60;;;17.40;99.90;;;;;;5060616;28;20516;-77
2021/06/06 05:42:45;;;;;;;16.70;15.40;;;17.50;99.90;;;;;;5058881;28;20450;-74
2021/06/06 05:45:14;;;;;;;17.57;16.10;;;17.70;99.90;;;;;;5058756;28;20560;-74
2021/06/06 05:47:42;;;;;;;17.30;15.80;;;17.80;99.90;;;;;;5051439;28;20540;-74
2021/06/06 05:50:11;;;;;;;17.23;15.73;;;17.80;99.90;;;;;;5058665;28;20540;-76
2021/06/06 05:52:37;;;;;;;19.00;17.40;;;18.00;99.90;;;;;;5056652;28;20476;-74
2021/06/06 05:55:06;;;;;;;17.67;16.00;;;17.80;99.90;;;;;;5056461;28;20565;-75
2021/06/06 05:57:32;;;;;;;17.03;15.63;;;18.10;99.90;;;;;;5058191;28;20828;-73
2021/06/06 05:59:59;;;;;;;16.07;14.67;;;17.80;99.90;;;;;;5051158;28;20469;-81
2021/06/06 06:02:25;;;;;;;16.23;14.83;;;17.90;99.90;;;;;;5059644;28;20617;-75
2021/06/06 06:04:53;;;;;;;16.10;14.70;;;17.90;99.90;;;;;;5052845;28;20511;-75
2021/06/06 06:07:19;;;;;;;16.00;14.60;;;17.70;99.90;;;;;;5059809;28;20847;-77
2021/06/06 06:09:45;;;;;;;15.80;14.50;;;17.80;99.90;;;;;;5047987;28;20518;-78
2021/06/06 06:12:12;;;;;;;15.93;14.40;;;17.90;99.90;;;;;;5055081;28;20481;-76
2021/06/06 06:14:38;;;;;;;16.50;15.00;;;17.70;99.90;;;;;;5051321;28;20466;-80
2021/06/06 06:17:05;;;;;;;17.17;15.63;;;17.80;99.90;;;;;;5053454;28;20528;-76
2021/06/06 06:19:31;;;;;;;16.43;15.00;;;17.90;99.90;;;;;;5064268;28;20442;-75
2021/06/06 06:21:59;;;;;;;16.73;15.13;;;17.70;99.90;;;;;;5058493;28;20822;-80
2021/06/06 06:24:27;;;;;;;17.80;16.20;;;17.70;99.90;;;;;;5072244;28;20452;-75
2021/06/06 06:26:55;;;;;;;19.50;17.63;;;17.60;99.90;;;;;;5049714;28;20457;-74
2021/06/06 06:29:21;;;;;;;19.37;17.57;;;17.50;99.90;;;;;;5052742;28;20772;-74
2021/06/06 06:31:48;;;;;;;17.63;16.17;;;17.60;99.90;;;;;;5052374;28;20569;-79
2021/06/06 06:34:14;;;;;;;17.97;16.27;;;17.80;99.90;;;;;;5048497;28;20490;-75
2021/06/06 06:36:42;;;;;;;17.70;16.30;;;17.80;99.90;;;;;;5059131;28;21028;-74
2021/06/06 06:39:10;;;;;;;19.80;16.60;;;17.90;99.90;;;;;;5054378;28;20473;-75
2021/06/06 06:41:36;;;;;;;17.83;16.23;;;18.20;99.90;;;;;;5059253;28;20456;-77
2021/06/06 06:44:03;;;;;;;16.57;15.17;;;18.70;99.90;;;;;;5054065;28;20565;-79
2021/06/06 06:46:29;;;;;;;16.83;15.43;;;19.00;99.90;;;;;;5055475;28;20598;-74
2021/06/06 06:48:56;;;;;;;16.17;14.77;;;19.80;99.60;;;;;;5051790;28;20491;-74
2021/06/06 06:51:23;;;;;;;15.97;14.70;;;19.70;98.30;;;;;;5060579;28;20784;-75
2021/06/06 06:53:54;;;;;;;14.70;13.40;;;19.20;99.90;;;;;;5062809;28;20512;-74
2021/06/06 06:56:24;;;;;;;15.80;14.50;;;18.80;99.90;;;;;;5055777;28;20452;-78
2021/06/06 06:58:51;;;;;;;15.80;14.60;;;19.00;99.90;;;;;;5050041;28;20516;-83
2021/06/06 07:01:17;;;;;;;15.43;14.23;;;19.20;99.90;;;;;;5060896;28;20964;-78
2021/06/06 07:03:44;;;;;;;15.83;14.40;;;19.30;99.90;;;;;;5048450;28;20532;-78
2021/06/06 07:06:12;;;;;;;14.33;13.20;;;19.10;99.90;;;;;;5058273;28;20450;-75
2021/06/06 07:08:39;;;;;;;14.00;12.90;;;19.50;99.90;;;;;;5049984;28;20445;-75
2021/06/06 07:11:10;;;;;;;12.70;11.50;;;19.80;97.70;;;;;;5054076;28;20480;-76
2021/06/06 07:13:38;;;;;;;12.57;11.67;;;20.00;94.30;;;;;;5051864;28;20444;-77
2021/06/06 07:16:06;;;;;;;12.47;11.53;;;20.50;93.70;;;;;;5058474;28;20544;-75
2021/06/06 07:18:32;;;;;;;12.17;11.17;;;20.80;92.10;;;;;;5054212;28;20456;-76
2021/06/06 07:21:01;;;;;;;11.87;10.97;;;20.90;92.90;;;;;;5061139;28;20452;-74
2021/06/06 07:23:30;;;;;;;11.57;10.67;;;20.80;91.30;;;;;;5051689;28;20578;-75
2021/06/06 07:25:59;;;;;;;11.27;10.40;;;21.20;90.70;;;;;;5058398;28;20471;-73
2021/06/06 07:28:28;;;;;;;12.63;11.27;;;19.90;90.80;;;;;;5058007;28;20464;-84
2021/06/06 07:30:59;;;;;;;10.30;9.50;;;19.50;92.70;;;;;;5049119;28;20518;-73
2021/06/06 07:33:29;;;;;;;10.20;9.40;;;20.00;93.00;;;;;;5049032;28;20465;-77
2021/06/06 07:35:57;;;;;;;11.40;10.40;;;20.50;92.10;;;;;;5054178;28;20473;-73
2021/06/06 07:38:25;;;;;;;11.17;10.30;;;20.70;90.90;;;;;;5052671;28;20451;-75
2021/06/06 07:40:53;;;;;;;11.87;10.70;;;20.10;92.50;;;;;;5060022;28;20514;-74
2021/06/06 07:43:21;;;;;;;10.13;9.30;;;20.50;92.60;;;;;;5053639;28;20444;-74
2021/06/06 07:45:47;;;;;;;11.63;10.67;;;20.60;92.50;;;;;;5052091;28;20457;-73
2021/06/06 07:48:15;;;;;;;10.60;9.70;;;20.40;91.40;;;;;;5051455;28;20464;-77
2021/06/06 07:50:45;;;;;;;9.63;8.83;;;20.70;91.60;;;;;;5056163;28;20475;-75
2021/06/06 07:53:12;;;;;;;9.27;8.57;;;21.90;90.20;;;;;;5059050;28;20488;-79
2021/06/06 07:55:39;;;;;;;9.30;8.50;;;21.70;88.80;;;;;;5055537;28;20438;-74
2021/06/06 07:58:06;;;;;;;8.77;8.07;;;21.60;88.30;;;;;;5048769;28;20981;-73
2021/06/06 08:00:34;;;;;;;8.60;8.00;;;20.80;88.40;;;;;;5053680;28;20540;-73
2021/06/06 08:03:01;;;;;;;8.40;7.70;;;20.50;90.70;;;;;;5056710;28;20456;-74
2021/06/06 08:05:29;;;;;;;7.80;7.20;;;20.50;90.90;;;;;;5056913;28;20815;-76
2021/06/06 08:07:55;;;;;;;8.40;7.70;;;21.40;90.20;;;;;;5050697;28;20478;-74
2021/06/06 08:10:25;;;;;;;8.37;7.73;;;20.80;90.00;;;;;;5054536;28;20534;-72
2021/06/06 08:12:51;;;;;;;7.63;6.97;;;21.00;90.00;;;;;;5051684;28;20476;-73
2021/06/06 08:15:19;;;;;;;6.90;6.40;;;21.80;88.30;;;;;;5048934;28;20461;-74
2021/06/06 08:17:46;;;;;;;6.47;5.93;;;22.40;85.40;;;;;;5055793;28;20461;-73
2021/06/06 08:20:16;;;;;;;6.40;6.00;;;22.10;83.40;;;;;;5053459;28;20489;-73
2021/06/06 08:22:44;;;;;;;6.47;6.07;;;22.40;83.30;;;;;;5053909;28;20453;-73
2021/06/06 08:25:13;;;;;;;6.60;6.10;;;22.80;84.00;;;;;;5052183;28;20849;-76
2021/06/06 08:27:42;;;;;;;6.57;5.27;;;23.20;82.80;;;;;;5048030;28;20602;-74
2021/06/06 08:30:12;;;;;;;6.37;5.87;;;25.00;82.30;;;;;;5051191;28;20450;-73
2021/06/06 08:32:38;;;;;;;5.33;4.93;;;25.00;78.40;;;;;;5057672;28;20507;-74
2021/06/06 08:35:07;;;;;;;6.60;5.67;;;24.50;78.40;;;;;;5054897;28;20532;-86
2021/06/06 08:37:33;;;;;;;5.80;5.30;;;23.60;78.70;;;;;;5054118;28;20523;-75
2021/06/06 08:40:01;;;;;;;5.00;4.70;;;24.30;78.50;;;;;;5051736;28;20553;-76
2021/06/06 08:42:31;;;;;;;5.27;4.90;;;23.10;78.00;;;;;;5052330;28;20459;-81
2021/06/06 08:45:05;;;;;;;5.50;5.13;;;24.10;79.00;;;;;;5051486;28;21081;-75
2021/06/06 08:47:33;;;;;;;7.73;7.23;;;22.50;79.30;;;;;;5049596;28;20788;-74
2021/06/06 08:50:05;;;;;;;7.90;7.30;;;21.90;83.20;;;;;;5049241;28;20847;-74
2021/06/06 08:52:42;;;;;;;8.00;7.40;;;22.30;84.50;;;;;;5047035;28;20589;-79
2021/06/06 08:55:20;;;;;;;8.80;8.20;;;22.60;84.10;;;;;;5050880;28;20484;-74
2021/06/06 08:57:49;;;;;;;9.77;8.60;;;22.20;83.80;;;;;;5051525;28;20485;-80
2021/06/06 09:00:20;;;;;;;8.80;8.10;;;22.30;84.70;;;;;;5054972;28;20461;-74
2021/06/06 09:02:49;;;;;;;7.97;7.40;;;22.00;85.20;;;;;;5042721;28;20457;-75
2021/06/06 09:05:27;;;;;;;8.27;7.70;;;22.20;84.80;;;;;;5052429;28;20478;-73
2021/06/06 09:07:56;;;;;;;9.13;8.23;;;22.60;84.30;;;;;;5057924;28;20488;-74
2021/06/06 09:10:27;;;;;;;8.17;7.57;;;22.40;83.80;;;;;;5051825;28;20462;-73
2021/06/06 09:12:55;;;;;;;8.43;7.83;;;21.90;83.40;;;;;;5059088;28;20476;-76
2021/06/06 09:15:23;;;;;;;9.83;8.87;;;21.90;83.70;;;;;;5055443;28;20488;-82
2021/06/06 09:17:56;;;;;;;8.30;7.60;;;21.50;83.90;;;;;;5066115;28;20447;-74
2021/06/06 09:20:28;;;;;;;8.80;8.10;;;22.00;84.00;;;;;;5050620;28;20450;-81
2021/06/06 09:23:06;;;;;;;8.20;7.50;;;22.10;83.70;;;;;;5043824;28;20449;-74
2021/06/06 09:25:36;;;;;;;7.70;7.20;;;21.40;83.00;;;;;;5049463;28;20503;-74
2021/06/06 09:28:05;;;;;;;7.50;6.93;;;21.70;82.60;;;;;;5058566;28;20446;-76
2021/06/06 09:30:34;;;;;;;7.63;7.03;;;21.70;82.50;;;;;;5059314;28;20618;-73
2021/06/06 09:33:11;;;;;;;8.40;7.70;;;21.80;82.50;;;;;;5054995;28;20501;-75
2021/06/06 09:35:39;;;;;;;7.50;6.90;;;21.90;83.10;;;;;;5046095;28;20553;-79
2021/06/06 09:38:14;;;;;;;8.50;7.90;;;21.60;83.00;;;;;;5051513;28;20462;-73
2021/06/06 09:40:45;;;;;;;7.60;7.00;;;21.10;84.90;;;;;;5051571;28;21007;-74
2021/06/06 09:43:23;;;;;;;6.97;6.30;;;21.50;84.40;;;;;;5045718;28;20458;-73
2021/06/06 09:45:49;;;;;;;8.03;7.33;;;21.80;83.20;;;;;;5045558;28;20864;-76
2021/06/06 09:48:26;;;;;;;6.93;6.43;;;21.30;82.80;;;;;;5050957;28;20606;-77
2021/06/06 09:50:54;;;;;;;7.30;6.80;;;21.50;82.60;;;;;;5051249;28;20456;-80
2021/06/06 09:53:24;;;;;;;6.77;6.17;;;21.60;83.00;;;;;;5050826;28;21120;-76
2021/06/06 09:56:04;;;;;;;6.87;6.47;;;22.20;84.10;;;;;;5044227;28;20441;-76
2021/06/06 09:58:33;;;;;;;8.27;7.67;;;22.50;84.00;;;;;;5047706;28;20494;-78
2021/06/06 10:01:06;;;;;;;7.40;6.90;;;23.10;84.50;;;;;;5048821;28;20460;-73
2021/06/06 10:03:36;;;;;;;7.00;6.40;;;23.30;82.40;;;;;;5053723;28;20475;-77
2021/06/06 10:06:16;;;;;;;8.20;7.37;;;23.50;82.50;;;;;;5058848;28;20455;-78
2021/06/06 10:08:44;;;;;;;7.00;6.50;;;24.20;82.00;;;;;;5056037;28;20448;-74
2021/06/06 10:11:14;;;;;;;7.10;6.60;;;24.60;81.30;;;;;;5061029;28;20466;-78
2021/06/06 10:13:45;;;;;;;7.70;7.17;;;24.70;81.70;;;;;;5059371;28;20463;-76
2021/06/06 10:16:14;;;;;;;7.50;6.93;;;24.80;80.70;;;;;;5042511;28;20454;-73
2021/06/06 10:18:45;;;;;;;6.60;6.00;;;24.80;79.50;;;;;;5053294;28;20543;-75
2021/06/06 10:21:16;;;;;;;6.73;6.23;;;24.80;79.00;;;;;;5057877;28;20452;-75
2021/06/06 10:23:44;;;;;;;6.73;6.03;;;25.00;79.30;;;;;;5046977;28;20501;-79
2021/06/06 10:26:17;;;;;;;7.13;6.63;;;25.50;78.00;;;;;;5050122;28;20540;-76
2021/06/06 10:28:48;;;;;;;7.40;6.87;;;25.80;77.10;;;;;;5056638;28;20631;-73
2021/06/06 10:31:29;;;;;;;7.93;7.20;;;25.00;76.70;;;;;;5052281;28;20513;-74
2021/06/06 10:33:59;;;;;;;8.30;7.67;;;25.10;77.10;;;;;;5063528;28;20935;-73
2021/06/06 10:36:27;;;;;;;7.53;6.77;;;24.10;78.10;;;;;;5050047;28;20536;-74
2021/06/06 10:38:54;;;;;;;7.93;7.43;;;24.10;79.40;;;;;;5055916;28;20475;-74
2021/06/06 10:41:29;;;;;;;7.70;7.20;;;23.90;79.90;;;;;;5051857;28;21286;-75
2021/06/06 10:44:01;;;;;;;7.47;6.90;;;23.60;79.30;;;;;;5052784;28;20787;-73
2021/06/06 10:46:31;;;;;;;8.17;7.57;;;;;;;;;;5049151;28;20463;-76
2021/06/06 10:49:16;;;;;;;9.13;8.43;;;21.90;82.00;;;;;;5051339;28;20453;-74
2021/06/06 10:51:50;;;;;;;8.33;7.70;;;21.50;83.00;;;;;;5049145;28;20469;-73
2021/06/06 10:54:35;;;;;;;7.37;6.87;;;21.70;83.90;;;;;;5056726;28;20491;-75
2021/06/06 10:57:06;;;;;;;17.43;8.70;;;21.30;83.80;;;;;;5056096;28;20457;-73
2021/06/06 10:59:37;;;;;;;15.23;10.97;;;21.00;90.00;;;;;;5051861;28;20960;-73
2021/06/06 11:02:06;;;;;;;12.80;11.80;;;19.60;99.90;;;;;;5054103;28;20461;-73
2021/06/06 11:04:46;;;;;;;13.00;11.90;;;18.90;99.90;;;;;;5051916;28;20450;-81
2021/06/06 11:07:35;;;;;;;13.37;12.27;;;19.00;99.90;;;;;;5052101;28;20477;-73
2021/06/06 11:10:06;;;;;;;15.00;13.80;;;19.10;99.90;;;;;;5058109;28;21029;-76
2021/06/06 11:12:36;;;;;;;14.10;13.00;;;19.10;99.90;;;;;;5048663;28;20472;-74
2021/06/06 11:15:17;;;;;;;15.87;14.50;;;19.20;99.90;;;;;;5053037;28;20822;-74
2021/06/06 11:17:44;;;;;;;17.53;16.03;;;19.40;99.90;;;;;;5065381;28;20963;-79
2021/06/06 11:20:16;;;;;;;15.70;14.20;;;19.60;99.90;;;;;;5060063;28;20456;-78
2021/06/06 11:22:45;;;;;;;14.40;13.30;;;19.90;99.90;;;;;;5047358;28;20868;-79
2021/06/06 11:25:36;;;;;;;13.40;12.30;;;20.20;99.90;;;;;;5052118;28;20457;-78
2021/06/06 11:28:08;;;;;;;15.10;13.73;;;20.20;99.90;;;;;;5055411;28;20909;-74
2021/06/06 11:30:42;;;;;;;12.40;11.33;;;20.20;99.90;;;;;;5055077;28;20545;-75
2021/06/06 11:33:12;;;;;;;12.90;11.77;;;20.40;98.00;;;;;;5047522;28;20471;-75
2021/06/06 11:35:48;;;;;;;12.67;11.67;;;21.20;95.20;;;;;;5052925;28;20960;-75
2021/06/06 11:38:43;;;;;;;9.00;8.30;;;21.80;94.00;;;;;;5050455;28;20489;-81
2021/06/06 11:41:37;;;;;;;7.63;7.03;;;22.10;90.20;;;;;;5052786;28;20907;-77
2021/06/06 11:44:19;;;;;;;8.53;7.73;;;22.00;88.00;;;;;;5047604;28;20467;-75
2021/06/06 11:46:51;;;;;;;9.17;8.47;;;22.10;87.80;;;;;;5051613;28;20499;-75
2021/06/06 11:49:28;;;;;;;8.87;8.27;;;21.70;90.00;;;;;;5043522;28;20464;-79
2021/06/06 11:51:56;;;;;;;9.50;8.70;;;21.90;90.10;;;;;;5049973;28;20535;-74
2021/06/06 11:54:31;;;;;;;9.23;8.53;;;21.90;91.70;;;;;;5060760;28;21180;-74
2021/06/06 11:57:03;;;;;;;9.53;8.80;;;21.40;90.70;;;;;;5057629;28;20445;-73
2021/06/06 11:59:38;;;;;;;13.27;10.00;;;21.00;92.00;;;;;;5053433;28;20455;-78
2021/06/06 12:02:11;;;;;;;10.13;9.33;;;21.20;94.90;;;;;;5050612;28;20480;-73
2021/06/06 12:04:39;;;;;;;10.63;9.73;;;20.40;96.30;;;;;;5059833;28;20459;-74
2021/06/06 12:07:12;;;;;;;9.53;8.83;;;20.10;99.00;;;;;;5052695;28;20450;-74
2021/06/06 12:09:41;;;;;;;12.00;10.93;;;19.50;99.90;;;;;;5055008;28;20474;-75
2021/06/06 12:12:11;;;;;;;11.13;10.33;;;19.40;99.90;;;;;;5054107;28;20481;-76
2021/06/06 12:14:39;;;;;;;12.00;11.00;;;19.40;99.90;;;;;;5048071;28;20451;-77
2021/06/06 12:17:16;;;;;;;12.80;11.57;;;20.00;99.90;;;;;;5044753;28;20460;-74
2021/06/06 12:19:46;;;;;;;11.47;10.67;;;20.00;99.90;;;;;;5062458;28;20455;-74
2021/06/06 12:22:25;;;;;;;11.70;10.70;;;20.50;99.90;;;;;;5049862;28;20509;-78
2021/06/06 12:25:11;;;;;;;10.93;10.17;;;20.80;99.90;;;;;;5054338;28;20518;-78
2021/06/06 12:27:43;;;;;;;11.40;10.43;;;20.70;99.90;;;;;;5057472;28;20542;-74
2021/06/06 12:30:22;;;;;;;11.40;10.60;;;20.70;99.90;;;;;;5059178;28;20489;-73
2021/06/06 12:32:53;;;;;;;9.33;8.63;;;21.00;98.90;;;;;;5056862;28;20465;-74
2021/06/06 12:35:22;;;;;;;9.30;8.70;;;21.20;93.60;;;;;;5057153;28;20486;-77
2021/06/06 12:37:54;;;;;;;9.90;9.10;;;21.10;95.10;;;;;;5054981;28;20448;-77
2021/06/06 12:40:23;;;;;;;9.87;9.07;;;21.40;94.80;;;;;;5038694;28;21080;-74
2021/06/06 12:42:55;;;;;;;9.70;8.13;;;21.60;95.40;;;;;;5058848;28;20455;-75
2021/06/06 12:45:23;;;;;;;8.37;7.77;;;21.60;92.70;;;;;;5054970;28;20448;-78